Time;durP1;ratioP1;P1;durP2;ratioP2;P2;SDS_P1;SDS_P2;PMS_P1;PMS_P2;Temp;Humidity;BMP_temperature;BMP_pressure;BME280_temperature;BME280_humidity;BME280_pressure;Samples;Min_cycle;Max_cycle;Signal;HPM_P1;HPM_P2
2022/10/21 00:01:49;;;;;;;8.60;7.60;;;;;;;;;;1758306;80;26240;-84
2022/10/21 00:04:17;;;;;;;9.03;7.40;;;;;;;;;;1758158;80;26356;-84
2022/10/21 00:06:46;;;;;;;10.30;7.40;;;;;;;;;;1730230;82;26292;-84
2022/10/21 00:09:14;;;;;;;6.73;5.87;;;;;;;;;;1757931;80;26235;-84
2022/10/21 00:11:43;;;;;;;5.97;4.30;;;;;;;;;;1792995;79;26589;-84
2022/10/21 00:14:12;;;;;;;7.47;4.57;;;;;;;;;;1758053;80;26297;-84
2022/10/21 00:16:40;;;;;;;5.63;3.53;;;;;;;;;;1744692;81;26368;-84
2022/10/21 00:19:09;;;;;;;3.90;3.50;;;;;;;;;;1748791;82;26320;-84
2022/10/21 00:21:39;;;;;;;4.93;3.87;;;;;;;;;;1773585;80;26262;-84
2022/10/21 00:24:09;;;;;;;4.50;3.57;;;;;;;;;;1758682;80;26293;-85
2022/10/21 00:26:38;;;;;;;5.37;3.60;;;;;;;;;;1743899;81;26290;-83
2022/10/21 00:29:07;;;;;;;3.83;3.47;;;;;;;;;;1728783;82;27348;-83
2022/10/21 00:31:36;;;;;;;3.50;3.30;;;;;;;;;;1744501;82;26369;-84
2022/10/21 00:34:04;;;;;;;4.00;3.60;;;;;;;;;;1795257;80;26337;-84
2022/10/21 00:36:34;;;;;;;7.83;4.00;;;;;;;;;;1776033;80;26871;-83
2022/10/21 00:39:03;;;;;;;3.50;3.30;;;;;;;;;;1758673;80;26363;-85
2022/10/21 00:41:31;;;;;;;4.37;3.93;;;;;;;;;;1744620;82;26316;-85
2022/10/21 00:44:01;;;;;;;4.30;4.00;;;;;;;;;;1758500;80;26309;-85
2022/10/21 00:46:36;;;;;;;4.83;3.67;;;;;;;;;;1814866;79;26326;-86
2022/10/21 00:49:07;;;;;;;3.97;3.73;;;;;;;;;;1814792;79;26345;-86
2022/10/21 00:51:37;;;;;;;4.93;3.90;;;;;;;;;;1816140;79;26226;-83
2022/10/21 00:54:08;;;;;;;6.70;4.33;;;;;;;;;;1816221;79;27093;-83
2022/10/21 00:56:37;;;;;;;8.70;4.17;;;;;;;;;;1815999;79;26253;-83
2022/10/21 00:59:06;;;;;;;3.90;3.60;;;;;;;;;;1815352;79;26293;-84
2022/10/21 01:01:34;;;;;;;4.00;3.63;;;;;;;;;;1793232;79;26770;-84
2022/10/21 01:04:04;;;;;;;4.47;3.70;;;;;;;;;;1757705;80;26379;-83
2022/10/21 01:06:34;;;;;;;4.67;4.37;;;;;;;;;;1792489;77;26352;-84
2022/10/21 01:09:02;;;;;;;4.43;3.90;;;;;;;;;;1814415;79;26374;-84
2022/10/21 01:11:33;;;;;;;3.90;3.60;;;;;;;;;;1768541;79;26360;-84
2022/10/21 01:14:06;;;;;;;4.87;3.63;;;;;;;;;;1779544;79;26395;-85
2022/10/21 01:16:36;;;;;;;5.47;3.87;;;;;;;;;;1733738;82;26260;-85
2022/10/21 01:19:09;;;;;;;5.20;3.90;;;;;;;;;;1753641;82;26318;-84
2022/10/21 01:21:39;;;;;;;4.17;3.80;;;;;;;;;;1781523;80;26739;-84
2022/10/21 01:24:30;;;;;;;4.63;3.77;;;;;;;;;;1795253;79;26262;-87
2022/10/21 01:27:17;;;;;;;4.63;4.33;;;;;;;;;;1809175;78;26270;-84
2022/10/21 01:29:54;;;;;;;5.83;3.90;;;;;;;;;;1761815;80;26344;-84
2022/10/21 01:32:25;;;;;;;4.63;3.87;;;;;;;;;;1766263;80;26377;-85
2022/10/21 01:34:55;;;;;;;5.90;4.67;;;;;;;;;;1746982;81;26278;-85
2022/10/21 01:37:27;;;;;;;5.57;4.27;;;;;;;;;;1702936;82;26604;-84
2022/10/21 01:39:57;;;;;;;5.53;4.50;;;;;;;;;;1706775;82;26308;-85
2022/10/21 01:42:27;;;;;;;9.90;5.10;;;;;;;;;;1725039;82;26785;-84
2022/10/21 01:44:57;;;;;;;7.73;5.73;;;;;;;;;;1744788;82;26315;-86
2022/10/21 01:47:27;;;;;;;6.73;6.10;;;;;;;;;;1757828;80;26313;-85
2022/10/21 01:49:58;;;;;;;7.37;6.43;;;;;;;;;;1769006;79;26282;-86
2022/10/21 01:52:27;;;;;;;9.13;6.83;;;;;;;;;;1814658;79;26294;-84
2022/10/21 01:54:58;;;;;;;7.87;6.97;;;;;;;;;;1736053;80;26286;-85
2022/10/21 01:57:28;;;;;;;14.23;8.33;;;;;;;;;;1761932;81;26291;-85
2022/10/21 01:59:59;;;;;;;10.47;8.17;;;;;;;;;;1735567;80;26336;-85
2022/10/21 02:02:29;;;;;;;12.17;9.17;;;;;;;;;;1729779;82;26319;-85
2022/10/21 02:04:59;;;;;;;13.10;9.30;;;;;;;;;;1757279;80;26392;-85
2022/10/21 02:07:28;;;;;;;14.33;10.27;;;;;;;;;;1778735;80;26738;-86
2022/10/21 02:10:00;;;;;;;11.57;10.37;;;;;;;;;;1730336;82;26370;-86
2022/10/21 02:12:30;;;;;;;18.70;12.70;;;;;;;;;;1814322;79;26298;-86
2022/10/21 02:15:00;;;;;;;18.10;13.33;;;;;;;;;;1815222;79;26714;-85
2022/10/21 02:17:29;;;;;;;19.60;12.83;;;;;;;;;;1814098;79;26364;-84
2022/10/21 02:20:00;;;;;;;14.30;12.50;;;;;;;;;;1792689;79;26361;-84
2022/10/21 02:22:30;;;;;;;17.13;12.70;;;;;;;;;;1814507;79;26290;-84
2022/10/21 02:25:02;;;;;;;18.27;14.30;;;;;;;;;;1729247;82;26332;-83
2022/10/21 02:27:30;;;;;;;17.83;13.53;;;;;;;;;;1728803;82;26377;-83
2022/10/21 02:30:01;;;;;;;18.07;14.07;;;;;;;;;;1729989;82;26308;-84
2022/10/21 02:32:31;;;;;;;20.43;15.23;;;;;;;;;;1814056;79;27421;-85
2022/10/21 02:35:06;;;;;;;18.03;14.40;;;;;;;;;;1814614;79;26346;-85
2022/10/21 02:37:36;;;;;;;16.70;12.57;;;;;;;;;;1814087;79;26294;-84
2022/10/21 02:40:06;;;;;;;18.30;14.13;;;;;;;;;;1814564;79;26276;-85
2022/10/21 02:42:37;;;;;;;19.87;13.90;;;;;;;;;;1792461;79;26337;-84
2022/10/21 02:45:08;;;;;;;16.93;13.10;;;;;;;;;;1814293;79;26688;-84
2022/10/21 02:47:38;;;;;;;16.57;13.03;;;;;;;;;;1814383;79;26589;-84
2022/10/21 02:50:08;;;;;;;19.00;13.80;;;;;;;;;;1814283;79;26959;-85
2022/10/21 02:52:37;;;;;;;18.50;15.07;;;;;;;;;;1792398;79;26375;-83
2022/10/21 02:55:06;;;;;;;19.23;14.50;;;;;;;;;;1814538;79;26274;-84
2022/10/21 02:57:34;;;;;;;23.03;15.57;;;;;;;;;;1792910;79;26334;-84
2022/10/21 03:00:04;;;;;;;22.07;16.63;;;;;;;;;;1814544;79;26882;-84
2022/10/21 03:02:33;;;;;;;23.53;16.67;;;;;;;;;;1814117;79;26395;-84
2022/10/21 03:05:01;;;;;;;24.17;18.57;;;;;;;;;;1818012;79;26264;-85
2022/10/21 03:07:30;;;;;;;25.67;19.47;;;;;;;;;;1814462;74;26271;-83
2022/10/21 03:10:00;;;;;;;29.13;19.77;;;;;;;;;;1792735;79;26974;-83
2022/10/21 03:12:29;;;;;;;30.73;21.87;;;;;;;;;;1814224;79;26298;-83
2022/10/21 03:14:58;;;;;;;29.60;21.30;;;;;;;;;;1792731;79;26290;-85
2022/10/21 03:17:27;;;;;;;30.37;20.77;;;;;;;;;;1816215;79;26301;-83
2022/10/21 03:19:56;;;;;;;29.10;21.30;;;;;;;;;;1795492;79;26821;-84
2022/10/21 03:22:24;;;;;;;31.93;19.67;;;;;;;;;;1820045;79;26295;-83
2022/10/21 03:24:54;;;;;;;26.30;19.10;;;;;;;;;;1794298;79;26266;-83
2022/10/21 03:27:24;;;;;;;27.00;20.07;;;;;;;;;;1793695;79;26368;-83
2022/10/21 03:29:53;;;;;;;31.63;20.77;;;;;;;;;;1792755;79;27356;-83
2022/10/21 03:32:23;;;;;;;27.77;19.77;;;;;;;;;;1817746;79;26449;-83
2022/10/21 03:34:51;;;;;;;30.77;21.33;;;;;;;;;;1817869;79;26350;-83
2022/10/21 03:37:20;;;;;;;35.80;22.53;;;;;;;;;;1793619;79;26342;-82
2022/10/21 03:39:49;;;;;;;34.70;24.17;;;;;;;;;;1814792;79;26693;-83
2022/10/21 03:42:17;;;;;;;41.03;25.33;;;;;;;;;;1817861;79;26731;-84
2022/10/21 03:44:46;;;;;;;40.27;27.17;;;;;;;;;;1818204;79;26279;-84
2022/10/21 03:47:14;;;;;;;49.60;29.50;;;;;;;;;;1793709;79;27425;-83
2022/10/21 03:49:43;;;;;;;45.83;28.57;;;;;;;;;;1793180;79;26353;-84
2022/10/21 03:52:11;;;;;;;44.60;30.23;;;;;;;;;;1814718;79;26776;-84
2022/10/21 03:54:40;;;;;;;45.17;29.87;;;;;;;;;;1817849;79;26853;-84
2022/10/21 03:57:09;;;;;;;42.10;29.70;;;;;;;;;;1814927;79;26753;-85
2022/10/21 03:59:37;;;;;;;42.57;31.70;;;;;;;;;;1815853;79;26854;-85
2022/10/21 04:02:06;;;;;;;50.53;31.77;;;;;;;;;;1808634;78;613981;-84
2022/10/21 04:04:34;;;;;;;45.37;32.90;;;;;;;;;;1819466;79;26745;-85
2022/10/21 04:07:03;;;;;;;46.57;31.37;;;;;;;;;;1818814;76;26530;-83
2022/10/21 04:09:31;;;;;;;47.37;32.97;;;;;;;;;;1815797;79;26747;-85
2022/10/21 04:12:00;;;;;;;51.53;33.50;;;;;;;;;;1730473;82;26315;-84
2022/10/21 04:14:30;;;;;;;44.50;31.57;;;;;;;;;;1750253;82;26294;-83
2022/10/21 04:16:59;;;;;;;53.03;32.53;;;;;;;;;;1752538;82;26357;-84
2022/10/21 04:19:28;;;;;;;43.23;30.77;;;;;;;;;;1752265;81;26266;-84
2022/10/21 04:21:57;;;;;;;48.53;30.50;;;;;;;;;;1731412;82;26358;-84
2022/10/21 04:24:27;;;;;;;46.50;29.83;;;;;;;;;;1749778;79;26892;-84
2022/10/21 04:26:56;;;;;;;46.77;29.23;;;;;;;;;;1797700;79;26968;-84
2022/10/21 04:29:25;;;;;;;44.47;30.00;;;;;;;;;;1729715;82;26289;-84
2022/10/21 04:31:54;;;;;;;43.30;28.17;;;;;;;;;;1728774;82;26400;-84
2022/10/21 04:34:23;;;;;;;38.37;27.67;;;;;;;;;;1748879;82;26393;-84
2022/10/21 04:36:52;;;;;;;39.37;27.10;;;;;;;;;;1748903;82;24518;-84
2022/10/21 04:39:22;;;;;;;35.67;26.07;;;;;;;;;;1732562;82;26260;-85
2022/10/21 04:41:51;;;;;;;36.23;25.57;;;;;;;;;;1774832;79;26257;-85
2022/10/21 04:44:20;;;;;;;42.47;28.37;;;;;;;;;;1773512;79;26523;-85
2022/10/21 04:46:50;;;;;;;39.33;27.73;;;;;;;;;;1800698;79;26269;-84
2022/10/21 04:49:18;;;;;;;42.83;27.53;;;;;;;;;;1801215;79;26673;-85
2022/10/21 04:51:47;;;;;;;39.07;25.90;;;;;;;;;;1800817;79;26284;-84
2022/10/21 04:54:15;;;;;;;36.13;27.43;;;;;;;;;;1773277;79;27043;-85
2022/10/21 04:56:44;;;;;;;42.70;26.97;;;;;;;;;;1728974;82;26314;-85
2022/10/21 04:59:12;;;;;;;40.80;26.23;;;;;;;;;;1730006;82;26287;-84
2022/10/21 05:01:41;;;;;;;43.63;27.40;;;;;;;;;;1726305;79;26281;-85
2022/10/21 05:04:09;;;;;;;39.47;27.30;;;;;;;;;;1773379;79;26314;-85
2022/10/21 05:06:38;;;;;;;38.90;25.47;;;;;;;;;;1772892;75;26309;-85
2022/10/21 05:09:06;;;;;;;38.50;26.47;;;;;;;;;;1749050;82;26294;-85
2022/10/21 05:11:36;;;;;;;45.63;28.90;;;;;;;;;;1749290;82;26320;-84
2022/10/21 05:14:05;;;;;;;45.67;30.17;;;;;;;;;;1729354;82;26779;-84
2022/10/21 05:16:34;;;;;;;46.40;31.03;;;;;;;;;;1749032;82;26809;-84
2022/10/21 05:19:02;;;;;;;44.07;30.33;;;;;;;;;;1753675;82;26306;-84
2022/10/21 05:21:32;;;;;;;53.80;31.70;;;;;;;;;;1749499;79;26390;-85
2022/10/21 05:24:01;;;;;;;48.33;30.83;;;;;;;;;;1749335;82;26384;-85
2022/10/21 05:26:31;;;;;;;50.13;32.77;;;;;;;;;;1729985;82;26896;-85
2022/10/21 05:29:00;;;;;;;55.43;34.77;;;;;;;;;;1792576;79;24214;-85
2022/10/21 05:31:29;;;;;;;56.70;34.50;;;;;;;;;;1794799;79;26241;-85
2022/10/21 05:33:58;;;;;;;53.77;34.60;;;;;;;;;;1795239;79;26295;-85
2022/10/21 05:36:28;;;;;;;58.27;35.23;;;;;;;;;;1816137;79;24171;-84
2022/10/21 05:38:58;;;;;;;57.27;34.97;;;;;;;;;;1816302;79;26304;-85
2022/10/21 05:41:28;;;;;;;60.93;36.70;;;;;;;;;;1818729;79;26295;-83
2022/10/21 05:43:57;;;;;;;57.33;34.67;;;;;;;;;;1818960;79;26277;-85
2022/10/21 05:46:25;;;;;;;57.50;34.70;;;;;;;;;;1793065;79;26284;-84
2022/10/21 05:48:54;;;;;;;66.53;36.30;;;;;;;;;;1728781;82;26392;-84
2022/10/21 05:51:25;;;;;;;56.87;35.63;;;;;;;;;;1730688;82;26389;-85
2022/10/21 05:53:54;;;;;;;52.37;31.77;;;;;;;;;;1814446;79;26269;-86
2022/10/21 05:56:23;;;;;;;55.17;33.03;;;;;;;;;;1814716;79;26268;-86
2022/10/21 05:58:52;;;;;;;51.50;31.80;;;;;;;;;;1793648;79;26272;-85
2022/10/21 06:01:22;;;;;;;50.50;31.67;;;;;;;;;;1814839;79;26283;-86
2022/10/21 06:03:51;;;;;;;52.90;31.90;;;;;;;;;;1815918;79;26290;-88
2022/10/21 06:06:19;;;;;;;54.53;32.63;;;;;;;;;;1814737;79;26805;-86
2022/10/21 06:08:47;;;;;;;49.60;33.20;;;;;;;;;;1818217;78;26313;-86
2022/10/21 06:11:17;;;;;;;53.43;35.20;;;;;;;;;;1818546;79;26260;-86
2022/10/21 06:13:46;;;;;;;54.50;33.57;;;;;;;;;;1793592;79;26268;-85
2022/10/21 06:16:15;;;;;;;50.90;34.27;;;;;;;;;;1815029;79;26359;-86
2022/10/21 06:18:44;;;;;;;44.97;33.07;;;;;;;;;;1817925;79;26837;-84
2022/10/21 06:21:12;;;;;;;42.57;29.97;;;;;;;;;;1814798;79;26647;-85
2022/10/21 06:23:43;;;;;;;50.57;30.33;;;;;;;;;;1814015;77;26465;-84
2022/10/21 06:26:14;;;;;;;36.40;27.63;;;;;;;;;;1793285;79;26267;-85
2022/10/21 06:28:43;;;;;;;42.20;29.40;;;;;;;;;;1817854;79;26614;-84
2022/10/21 06:31:12;;;;;;;38.23;29.87;;;;;;;;;;1794691;79;26270;-85
2022/10/21 06:33:43;;;;;;;35.93;28.13;;;;;;;;;;1813863;79;26291;-83
2022/10/21 06:36:12;;;;;;;38.37;27.37;;;;;;;;;;1814352;79;26289;-84
2022/10/21 06:38:42;;;;;;;36.27;26.57;;;;;;;;;;1814351;79;26275;-83
2022/10/21 06:41:11;;;;;;;32.40;23.40;;;;;;;;;;1793198;79;26281;-83
2022/10/21 06:43:41;;;;;;;30.23;23.70;;;;;;;;;;1814393;79;24223;-84
2022/10/21 06:46:11;;;;;;;36.00;23.80;;;;;;;;;;1794681;79;26294;-81
2022/10/21 06:48:39;;;;;;;30.30;20.30;;;;;;;;;;1815568;79;26384;-84
2022/10/21 06:51:09;;;;;;;29.37;19.30;;;;;;;;;;1794730;79;26750;-83
2022/10/21 06:53:38;;;;;;;25.73;19.63;;;;;;;;;;1815100;79;26361;-84
2022/10/21 06:56:09;;;;;;;25.70;18.07;;;;;;;;;;1793930;79;26296;-85
2022/10/21 06:58:42;;;;;;;26.80;17.43;;;;;;;;;;1814653;79;26337;-84
2022/10/21 07:01:11;;;;;;;26.57;18.27;;;;;;;;;;1815832;79;26277;-84
2022/10/21 07:03:39;;;;;;;24.50;15.90;;;;;;;;;;1794919;79;26485;-84
2022/10/21 07:06:08;;;;;;;26.80;19.30;;;;;;;;;;1816313;79;26276;-84
2022/10/21 07:08:38;;;;;;;26.30;17.47;;;;;;;;;;1793309;77;26426;-85
2022/10/21 07:11:09;;;;;;;21.60;16.47;;;;;;;;;;1792533;79;26920;-85
2022/10/21 07:13:37;;;;;;;22.03;14.53;;;;;;;;;;1815678;79;26337;-85
2022/10/21 07:16:07;;;;;;;20.67;15.67;;;;;;;;;;1793245;79;26289;-81
2022/10/21 07:18:36;;;;;;;24.07;14.50;;;;;;;;;;1814296;79;26284;-81
2022/10/21 07:21:06;;;;;;;23.03;14.20;;;;;;;;;;1793617;79;26895;-81
2022/10/21 07:23:36;;;;;;;20.20;12.20;;;;;;;;;;1814080;79;26353;-80
2022/10/21 07:26:05;;;;;;;20.10;9.70;;;;;;;;;;1815020;79;26350;-80
2022/10/21 07:28:35;;;;;;;22.33;10.30;;;;;;;;;;1814152;79;26277;-81
2022/10/21 07:31:05;;;;;;;17.57;10.60;;;;;;;;;;1792865;79;26368;-81
2022/10/21 07:33:34;;;;;;;19.67;10.17;;;;;;;;;;1814502;79;26350;-82
2022/10/21 07:36:05;;;;;;;20.83;10.73;;;;;;;;;;1814266;79;26652;-82
2022/10/21 07:38:34;;;;;;;21.60;10.63;;;;;;;;;;1813924;79;26276;-81
2022/10/21 07:41:04;;;;;;;21.60;9.90;;;;;;;;;;1813971;79;26964;-82
2022/10/21 07:43:33;;;;;;;20.33;9.97;;;;;;;;;;1814022;79;26280;-82
2022/10/21 07:46:01;;;;;;;15.33;9.13;;;;;;;;;;1814121;79;26284;-82
2022/10/21 07:48:31;;;;;;;16.73;9.47;;;;;;;;;;1814393;79;26356;-87
2022/10/21 07:51:03;;;;;;;15.77;9.10;;;;;;;;;;1815098;79;24280;-87
2022/10/21 07:53:31;;;;;;;15.67;9.17;;;;;;;;;;1815066;79;24345;-87
2022/10/21 07:56:05;;;;;;;21.33;10.57;;;;;;;;;;1794556;79;26284;-89
2022/10/21 07:58:35;;;;;;;18.50;10.70;;;;;;;;;;1816381;79;26549;-89
2022/10/21 08:01:05;;;;;;;20.70;9.60;;;;;;;;;;1816968;79;24206;-90
2022/10/21 08:03:34;;;;;;;17.17;12.47;;;;;;;;;;1794641;79;24342;-92
2022/10/21 08:06:04;;;;;;;15.40;9.57;;;;;;;;;;1816525;79;26335;-91
2022/10/21 08:08:33;;;;;;;19.27;11.57;;;;;;;;;;1760632;78;24330;-92
2022/10/21 08:11:05;;;;;;;18.63;10.13;;;;;;;;;;1734017;82;24734;-92
2022/10/21 08:13:35;;;;;;;19.20;10.60;;;;;;;;;;1818200;79;24215;-93
2022/10/21 08:16:08;;;;;;;18.80;11.23;;;;;;;;;;1817963;79;24295;-92
2022/10/21 08:18:38;;;;;;;13.70;11.07;;;;;;;;;;1818927;79;24217;-93
2022/10/21 08:21:12;;;;;;;17.03;12.20;;;;;;;;;;1797159;79;24454;-93
2022/10/21 08:23:41;;;;;;;16.23;12.70;;;;;;;;;;1818422;79;24313;-93
2022/10/21 08:26:13;;;;;;;24.93;13.07;;;;;;;;;;1731956;82;24252;-92
2022/10/21 08:28:45;;;;;;;26.73;12.60;;;;;;;;;;1730467;82;24717;-93
2022/10/21 08:31:15;;;;;;;20.33;11.73;;;;;;;;;;1752363;82;26295;-92
2022/10/21 08:33:44;;;;;;;18.07;10.63;;;;;;;;;;1816384;79;26557;-92
2022/10/21 08:36:21;;;;;;;18.20;10.60;;;;;;;;;;1816842;79;24201;-92
2022/10/21 08:38:51;;;;;;;21.07;10.57;;;;;;;;;;1817383;79;24230;-91
2022/10/21 08:41:50;;;;;;;18.20;10.90;;;;;;;;;;1731789;82;24229;-91
2022/10/21 08:44:24;;;;;;;14.60;9.10;;;;;;;;;;1747730;82;24416;-92
2022/10/21 08:46:56;;;;;;;20.10;11.23;;;;;;;;;;1775381;79;24672;-91
2022/10/21 08:49:30;;;;;;;20.50;9.67;;;;;;;;;;1753213;82;24253;-90
2022/10/21 08:52:02;;;;;;;17.10;10.63;;;;;;;;;;1732278;82;24550;-91
2022/10/21 08:54:33;;;;;;;18.67;10.97;;;;;;;;;;1815611;79;26280;-91
2022/10/21 08:57:02;;;;;;;17.53;10.53;;;;;;;;;;1816314;79;24225;-91
2022/10/21 08:59:31;;;;;;;19.13;10.17;;;;;;;;;;1816305;79;26280;-91
2022/10/21 09:02:03;;;;;;;17.20;9.07;;;;;;;;;;1795010;79;26383;-91
2022/10/21 09:04:35;;;;;;;16.87;8.50;;;;;;;;;;1794159;79;24266;-77
2022/10/21 09:07:09;;;;;;;17.00;9.50;;;;;;;;;;1758019;80;24243;-79
2022/10/21 09:09:42;;;;;;;19.73;7.87;;;;;;;;;;1743993;79;24296;-80
2022/10/21 09:12:13;;;;;;;20.87;9.77;;;;;;;;;;1794300;80;24309;-79
2022/10/21 09:14:56;;;;;;;23.27;11.80;;;;;;;;;;1775185;80;24888;-78
2022/10/21 09:17:29;;;;;;;19.43;11.00;;;;;;;;;;1813648;79;24217;-78
2022/10/21 09:20:02;;;;;;;19.80;10.63;;;;;;;;;;1793474;79;26764;-79
2022/10/21 09:22:36;;;;;;;16.87;10.77;;;;;;;;;;1813580;79;24276;-79
2022/10/21 09:25:08;;;;;;;21.63;11.77;;;;;;;;;;1813710;79;24272;-78
2022/10/21 09:27:36;;;;;;;17.53;9.93;;;;;;;;;;1813742;77;24237;-79
2022/10/21 09:30:09;;;;;;;15.30;8.70;;;;;;;;;;1767150;79;24194;-80
2022/10/21 09:32:39;;;;;;;16.37;3.83;;;;;;;;;;1813646;79;26723;-78
2022/10/21 09:35:11;;;;;;;13.57;3.53;;;;;;;;;;1769400;79;24249;-79
2022/10/21 09:38:00;;;;;;;18.37;4.10;;;;;;;;;;1791981;79;26283;-78
2022/10/21 09:40:29;;;;;;;18.53;4.17;;;;;;;;;;1778373;80;24224;-79
2022/10/21 09:43:00;;;;;;;14.13;4.40;;;;;;;;;;1752714;82;24833;-79
2022/10/21 09:45:31;;;;;;;19.17;5.53;;;;;;;;;;1777915;80;24197;-79
2022/10/21 09:48:01;;;;;;;22.50;7.90;;;;;;;;;;1813812;79;26396;-79
2022/10/21 09:50:32;;;;;;;17.43;7.97;;;;;;;;;;1791957;79;27493;-79
2022/10/21 09:53:04;;;;;;;17.20;8.77;;;;;;;;;;1734792;80;24298;-80
2022/10/21 09:55:33;;;;;;;23.50;13.03;;;;;;;;;;1761454;81;26423;-82
2022/10/21 09:58:03;;;;;;;21.83;11.03;;;;;;;;;;1757573;80;26887;-80
2022/10/21 10:00:43;;;;;;;21.20;11.93;;;;;;;;;;1728011;82;25550;-80
2022/10/21 10:03:13;;;;;;;20.63;14.67;;;;;;;;;;1728285;82;24346;-79
2022/10/21 10:05:46;;;;;;;22.67;15.67;;;;;;;;;;1748588;82;24256;-79
2022/10/21 10:08:21;;;;;;;22.93;15.80;;;;;;;;;;1748495;82;24244;-78
2022/10/21 10:10:49;;;;;;;20.50;14.70;;;;;;;;;;1729310;79;25000;-78
2022/10/21 10:13:20;;;;;;;27.40;15.80;;;;;;;;;;1772985;79;24641;-80
2022/10/21 10:15:49;;;;;;;25.20;17.90;;;;;;;;;;1773428;79;24675;-79
2022/10/21 10:18:23;;;;;;;25.07;16.23;;;;;;;;;;1796901;79;24219;-79
2022/10/21 10:21:09;;;;;;;23.03;16.50;;;;;;;;;;1748872;82;24248;-78
2022/10/21 10:23:44;;;;;;;21.37;15.77;;;;;;;;;;1750351;82;24236;-78
2022/10/21 10:26:17;;;;;;;24.07;17.77;;;;;;;;;;1730686;82;24670;-79
2022/10/21 10:28:50;;;;;;;20.60;14.87;;;;;;;;;;1750539;82;24193;-77
2022/10/21 10:31:27;;;;;;;22.30;16.00;;;;;;;;;;1753730;82;24342;-78
2022/10/21 10:33:57;;;;;;;24.83;16.90;;;;;;;;;;1731718;82;24770;-77
2022/10/21 10:36:28;;;;;;;26.03;17.43;;;;;;;;;;1774733;79;24241;-77
2022/10/21 10:38:58;;;;;;;25.93;16.77;;;;;;;;;;1775377;79;24556;-77
2022/10/21 10:41:33;;;;;;;26.00;16.03;;;;;;;;;;1773250;79;24203;-77
2022/10/21 10:44:03;;;;;;;24.57;16.47;;;;;;;;;;1748559;82;24265;-76
2022/10/21 10:46:34;;;;;;;18.77;16.43;;;;;;;;;;1728722;82;24247;-81
2022/10/21 10:49:08;;;;;;;21.83;13.53;;;;;;;;;;1730642;82;26901;-77
2022/10/21 10:51:36;;;;;;;24.57;12.80;;;;;;;;;;1800651;79;24740;-80
2022/10/21 10:54:17;;;;;;;24.90;15.77;;;;;;;;;;1799196;79;24182;-80
2022/10/21 10:56:48;;;;;;;25.07;16.20;;;;;;;;;;1774569;79;24171;-80
2022/10/21 10:59:18;;;;;;;22.53;12.77;;;;;;;;;;1802251;79;24198;-80
2022/10/21 11:01:50;;;;;;;37.17;20.27;;;;;;;;;;1800769;79;24225;-79
2022/10/21 11:04:21;;;;;;;28.50;18.13;;;;;;;;;;1772588;79;24770;-79
2022/10/21 11:06:51;;;;;;;34.00;16.03;;;;;;;;;;1800294;79;24292;-77
2022/10/21 11:09:20;;;;;;;29.33;8.70;;;;;;;;;;1773822;75;26356;-77
2022/10/21 11:11:52;;;;;;;27.43;6.80;;;;;;;;;;1759409;80;26349;-77
2022/10/21 11:14:22;;;;;;;19.73;5.30;;;;;;;;;;1726606;82;26261;-77
2022/10/21 11:16:55;;;;;;;27.63;6.37;;;;;;;;;;1780032;80;26217;-78
2022/10/21 11:19:26;;;;;;;32.17;6.63;;;;;;;;;;1759273;80;26255;-78
2022/10/21 11:21:55;;;;;;;32.73;7.30;;;;;;;;;;1745998;82;26358;-78
2022/10/21 11:24:29;;;;;;;34.37;7.70;;;;;;;;;;1779984;80;26323;-78
2022/10/21 11:27:00;;;;;;;33.87;7.63;;;;;;;;;;1794929;79;26283;-78
2022/10/21 11:29:33;;;;;;;33.37;7.80;;;;;;;;;;1816183;79;26339;-78
2022/10/21 11:32:03;;;;;;;32.73;7.17;;;;;;;;;;1760189;80;27072;-80
2022/10/21 11:34:34;;;;;;;26.27;7.17;;;;;;;;;;1750360;82;26833;-79
2022/10/21 11:37:04;;;;;;;35.47;7.50;;;;;;;;;;1816059;79;24170;-79
2022/10/21 11:39:40;;;;;;;27.83;7.00;;;;;;;;;;1759843;80;24196;-79
2022/10/21 11:42:12;;;;;;;37.70;7.87;;;;;;;;;;1723160;81;27056;-79
2022/10/21 11:44:45;;;;;;;22.30;6.13;;;;;;;;;;1763459;81;26782;-79
2022/10/21 11:47:16;;;;;;;31.33;7.53;;;;;;;;;;1762631;80;27053;-79
2022/10/21 11:49:48;;;;;;;26.80;6.47;;;;;;;;;;1763214;80;24267;-79
2022/10/21 11:52:20;;;;;;;31.67;6.97;;;;;;;;;;1745719;81;24248;-78
2022/10/21 11:55:08;;;;;;;35.37;7.97;;;;;;;;;;1730577;82;24706;-77
2022/10/21 11:57:38;;;;;;;31.43;7.60;;;;;;;;;;1726186;82;24196;-78
2022/10/21 12:00:10;;;;;;;30.77;6.83;;;;;;;;;;1796430;80;24715;-77
2022/10/21 12:02:48;;;;;;;30.53;7.30;;;;;;;;;;1780256;80;24231;-77
2022/10/21 12:05:25;;;;;;;26.90;6.80;;;;;;;;;;1731325;82;24205;-76
2022/10/21 12:08:04;;;;;;;23.97;6.03;;;;;;;;;;1746139;82;24209;-76
2022/10/21 12:10:34;;;;;;;23.10;5.87;;;;;;;;;;1796612;76;24297;-75
2022/10/21 12:13:06;;;;;;;26.10;5.90;;;;;;;;;;1796748;80;24217;-84
2022/10/21 12:15:40;;;;;;;24.17;6.10;;;;;;;;;;1796767;80;24187;-83
2022/10/21 12:18:12;;;;;;;24.63;6.07;;;;;;;;;;1796832;80;24250;-83
2022/10/21 12:20:40;;;;;;;28.33;6.90;;;;;;;;;;1736318;80;24786;-83
2022/10/21 12:23:11;;;;;;;22.37;5.67;;;;;;;;;;1743816;81;26378;-85
2022/10/21 12:25:41;;;;;;;25.73;6.17;;;;;;;;;;1749532;82;24314;-83
2022/10/21 12:28:11;;;;;;;29.40;7.03;;;;;;;;;;1744615;82;26772;-82
2022/10/21 12:30:42;;;;;;;28.90;6.27;;;;;;;;;;1776628;80;26829;-81
2022/10/21 12:33:14;;;;;;;37.47;7.57;;;;;;;;;;1814696;79;26288;-82
2022/10/21 12:35:45;;;;;;;30.80;7.23;;;;;;;;;;1759207;80;26288;-83
2022/10/21 12:38:22;;;;;;;31.20;7.10;;;;;;;;;;1744713;81;26296;-83
2022/10/21 12:40:53;;;;;;;40.10;8.73;;;;;;;;;;1762252;81;26665;-86
2022/10/21 12:43:27;;;;;;;42.63;8.10;;;;;;;;;;1759235;80;26622;-88
2022/10/21 12:46:03;;;;;;;35.77;8.57;;;;;;;;;;1744294;81;24240;-80
2022/10/21 12:48:35;;;;;;;34.83;7.10;;;;;;;;;;1750579;82;27059;-82
2022/10/21 12:51:05;;;;;;;31.27;7.47;;;;;;;;;;1732354;82;26842;-82
2022/10/21 12:53:39;;;;;;;35.93;8.13;;;;;;;;;;1780126;80;24142;-81
2022/10/21 12:56:09;;;;;;;35.93;8.50;;;;;;;;;;1816086;79;24162;-80
2022/10/21 12:58:40;;;;;;;36.90;7.93;;;;;;;;;;1816022;79;24176;-80
2022/10/21 13:01:12;;;;;;;36.73;8.63;;;;;;;;;;1815889;79;26765;-81
2022/10/21 13:03:56;;;;;;;28.87;7.83;;;;;;;;;;1733736;80;24843;-81
2022/10/21 13:06:43;;;;;;;32.87;7.30;;;;;;;;;;1746003;82;24271;-81
2022/10/21 13:09:31;;;;;;;32.60;7.37;;;;;;;;;;1796328;80;24233;-80
2022/10/21 13:12:04;;;;;;;36.27;7.60;;;;;;;;;;1759836;78;26300;-81
2022/10/21 13:14:39;;;;;;;32.90;7.50;;;;;;;;;;1745859;81;26335;-81
2022/10/21 13:17:15;;;;;;;45.37;9.00;;;;;;;;;;1730796;82;26423;-79
2022/10/21 13:19:44;;;;;;;36.23;7.17;;;;;;;;;;1726273;82;26279;-78
2022/10/21 13:22:14;;;;;;;43.23;7.10;;;;;;;;;;1796466;80;24175;-76
2022/10/21 13:24:42;;;;;;;31.97;7.70;;;;;;;;;;1796410;80;26238;-77
2022/10/21 13:27:33;;;;;;;37.07;8.47;;;;;;;;;;1795341;79;24178;-77
2022/10/21 13:30:02;;;;;;;34.30;7.57;;;;;;;;;;1813569;79;26227;-79
2022/10/21 13:32:31;;;;;;;34.20;7.00;;;;;;;;;;1794657;79;26237;-77
2022/10/21 13:35:23;;;;;;;34.50;8.00;;;;;;;;;;1795352;79;24270;-78
2022/10/21 13:37:54;;;;;;;29.80;7.07;;;;;;;;;;1809508;79;24174;-77
2022/10/21 13:40:24;;;;;;;33.93;7.37;;;;;;;;;;1780420;80;26311;-78
2022/10/21 13:42:56;;;;;;;33.17;7.80;;;;;;;;;;1726175;82;24200;-77
2022/10/21 13:45:26;;;;;;;31.63;7.57;;;;;;;;;;1779959;80;27134;-77
2022/10/21 13:48:07;;;;;;;29.80;6.67;;;;;;;;;;1759429;80;26248;-74
2022/10/21 13:50:38;;;;;;;32.57;6.97;;;;;;;;;;1745765;82;26262;-74
2022/10/21 13:53:16;;;;;;;37.20;7.40;;;;;;;;;;1780164;80;26359;-74
2022/10/21 13:55:53;;;;;;;39.97;7.00;;;;;;;;;;1779791;79;26335;-74
2022/10/21 13:58:34;;;;;;;33.17;7.57;;;;;;;;;;1751544;81;26358;-74
2022/10/21 14:01:08;;;;;;;36.70;7.23;;;;;;;;;;1775348;79;26236;-74
2022/10/21 14:03:37;;;;;;;36.37;7.33;;;;;;;;;;1780368;80;26291;-74
2022/10/21 14:06:07;;;;;;;35.57;7.10;;;;;;;;;;1745974;82;26849;-74
2022/10/21 14:08:39;;;;;;;29.87;6.40;;;;;;;;;;1796224;80;26802;-74
2022/10/21 14:11:09;;;;;;;32.67;7.40;;;;;;;;;;1796284;75;26299;-74
2022/10/21 14:13:39;;;;;;;26.53;7.40;;;;;;;;;;1796487;80;24221;-74
2022/10/21 14:16:09;;;;;;;28.43;7.07;;;;;;;;;;1794762;80;26277;-74
2022/10/21 14:18:39;;;;;;;29.93;7.40;;;;;;;;;;1794754;80;24293;-74
2022/10/21 14:21:10;;;;;;;32.23;7.67;;;;;;;;;;1813917;79;25404;-76
2022/10/21 14:23:40;;;;;;;37.70;7.90;;;;;;;;;;1813214;77;26859;-75
2022/10/21 14:26:09;;;;;;;27.77;6.80;;;;;;;;;;1792696;79;26382;-75
2022/10/21 14:28:39;;;;;;;30.53;6.73;;;;;;;;;;1813883;79;26296;-75
2022/10/21 14:31:10;;;;;;;33.10;7.50;;;;;;;;;;1814033;79;26646;-75
2022/10/21 14:33:41;;;;;;;25.23;6.00;;;;;;;;;;1760734;80;26815;-75
2022/10/21 14:36:11;;;;;;;31.87;7.80;;;;;;;;;;1742630;82;24201;-77
2022/10/21 14:38:42;;;;;;;28.87;6.33;;;;;;;;;;1759356;80;24154;-75
2022/10/21 14:41:14;;;;;;;31.40;6.67;;;;;;;;;;1759664;80;26323;-75
2022/10/21 14:43:44;;;;;;;27.97;6.37;;;;;;;;;;1746090;82;24255;-75
2022/10/21 14:46:13;;;;;;;34.57;6.53;;;;;;;;;;1777649;80;27049;-75